sensor_id;sensor_type;location;lat;lon;timestamp;pressure;altitude;pressure_sealevel;temperature;humidity
72570;BME280;60594;50.204;8.844;2023-07-30T00:00:21;99359.50;;;18.19;100.00
72570;BME280;60594;50.204;8.844;2023-07-30T00:03:07;99359.88;;;18.16;100.00
72570;BME280;60594;50.204;8.844;2023-07-30T00:05:34;99361.75;;;18.16;100.00
72570;BME280;60594;50.204;8.844;2023-07-30T00:08:00;99360.72;;;18.17;100.00
72570;BME280;60594;50.204;8.844;2023-07-30T00:10:27;99361.66;;;18.09;100.00
72570;BME280;60594;50.204;8.844;2023-07-30T00:12:53;99357.31;;;18.08;100.00
72570;BME280;60594;50.204;8.844;2023-07-30T00:15:20;99366.69;;;18.12;100.00
72570;BME280;60594;50.204;8.844;2023-07-30T00:17:47;99359.19;;;18.08;100.00
72570;BME280;60594;50.204;8.844;2023-07-30T00:20:13;99373.94;;;18.12;100.00
72570;BME280;60594;50.204;8.844;2023-07-30T00:22:40;99374.34;;;18.09;100.00
72570;BME280;60594;50.204;8.844;2023-07-30T00:25:06;99374.53;;;18.07;100.00
72570;BME280;60594;50.204;8.844;2023-07-30T00:27:34;99369.31;;;18.06;100.00
72570;BME280;60594;50.204;8.844;2023-07-30T00:30:01;99378.88;;;18.08;100.00
72570;BME280;60594;50.204;8.844;2023-07-30T00:32:27;99374.03;;;18.04;100.00
72570;BME280;60594;50.204;8.844;2023-07-30T00:34:54;99365.97;;;18.04;100.00
72570;BME280;60594;50.204;8.844;2023-07-30T00:37:21;99365.31;;;18.02;100.00
72570;BME280;60594;50.204;8.844;2023-07-30T00:39:47;99370.72;;;18.02;100.00
72570;BME280;60594;50.204;8.844;2023-07-30T00:42:14;99370.06;;;18.00;100.00
72570;BME280;60594;50.204;8.844;2023-07-30T00:44:42;99363.75;;;17.93;100.00
72570;BME280;60594;50.204;8.844;2023-07-30T00:47:08;99378.34;;;17.98;100.00
72570;BME280;60594;50.204;8.844;2023-07-30T00:49:35;99381.44;;;17.95;100.00
72570;BME280;60594;50.204;8.844;2023-07-30T00:52:03;99388.03;;;17.93;100.00
72570;BME280;60594;50.204;8.844;2023-07-30T00:54:30;99380.91;;;17.85;100.00
72570;BME280;60594;50.204;8.844;2023-07-30T00:56:56;99387.56;;;17.89;100.00
72570;BME280;60594;50.204;8.844;2023-07-30T00:59:23;99389.91;;;17.92;100.00
72570;BME280;60594;50.204;8.844;2023-07-30T01:01:51;99389.91;;;17.92;100.00
72570;BME280;60594;50.204;8.844;2023-07-30T01:04:18;99386.53;;;17.90;100.00
72570;BME280;60594;50.204;8.844;2023-07-30T01:06:45;99386.53;;;17.90;100.00
72570;BME280;60594;50.204;8.844;2023-07-30T01:09:12;99393.81;;;17.90;100.00
72570;BME280;60594;50.204;8.844;2023-07-30T01:11:39;99396.97;;;17.93;100.00
72570;BME280;60594;50.204;8.844;2023-07-30T01:14:08;99396.09;;;17.93;100.00
72570;BME280;60594;50.204;8.844;2023-07-30T01:16:36;99402.34;;;17.93;100.00
72570;BME280;60594;50.204;8.844;2023-07-30T01:19:02;99405.59;;;17.89;100.00
72570;BME280;60594;50.204;8.844;2023-07-30T01:21:35;99402.34;;;17.93;100.00
72570;BME280;60594;50.204;8.844;2023-07-30T01:24:02;99401.50;;;17.93;100.00
72570;BME280;60594;50.204;8.844;2023-07-30T01:26:35;99411.91;;;17.96;100.00
72570;BME280;60594;50.204;8.844;2023-07-30T01:29:07;99403.00;;;17.95;100.00
72570;BME280;60594;50.204;8.844;2023-07-30T01:31:37;99414.06;;;18.00;100.00
72570;BME280;60594;50.204;8.844;2023-07-30T01:34:07;99410.78;;;18.05;100.00
72570;BME280;60594;50.204;8.844;2023-07-30T01:36:35;99413.31;;;18.06;100.00
72570;BME280;60594;50.204;8.844;2023-07-30T01:39:03;99418.03;;;18.04;100.00
72570;BME280;60594;50.204;8.844;2023-07-30T01:41:29;99428.81;;;18.04;100.00
72570;BME280;60594;50.204;8.844;2023-07-30T01:43:56;99420.00;;;17.96;100.00
72570;BME280;60594;50.204;8.844;2023-07-30T01:46:22;99438.13;;;18.02;100.00
72570;BME280;60594;50.204;8.844;2023-07-30T01:48:49;99439.16;;;18.01;100.00
72570;BME280;60594;50.204;8.844;2023-07-30T01:51:15;99443.91;;;17.99;100.00
72570;BME280;60594;50.204;8.844;2023-07-30T01:53:41;99452.19;;;17.97;100.00
72570;BME280;60594;50.204;8.844;2023-07-30T01:56:08;99430.34;;;17.92;100.00
72570;BME280;60594;50.204;8.844;2023-07-30T01:58:34;99443.72;;;18.00;100.00
72570;BME280;60594;50.204;8.844;2023-07-30T02:01:01;99444.94;;;17.98;100.00
72570;BME280;60594;50.204;8.844;2023-07-30T02:03:27;99437.41;;;17.93;100.00
72570;BME280;60594;50.204;8.844;2023-07-30T02:05:54;99441.38;;;17.97;100.00
72570;BME280;60594;50.204;8.844;2023-07-30T02:08:21;99441.88;;;18.01;100.00
72570;BME280;60594;50.204;8.844;2023-07-30T02:10:57;99444.38;;;18.02;100.00
72570;BME280;60594;50.204;8.844;2023-07-30T02:13:24;99448.44;;;17.98;100.00
72570;BME280;60594;50.204;8.844;2023-07-30T02:15:51;99443.34;;;18.03;100.00
72570;BME280;60594;50.204;8.844;2023-07-30T02:18:18;99452.25;;;18.04;100.00
72570;BME280;60594;50.204;8.844;2023-07-30T02:20:45;99460.81;;;18.07;100.00
72570;BME280;60594;50.204;8.844;2023-07-30T02:23:14;99456.72;;;18.11;100.00
72570;BME280;60594;50.204;8.844;2023-07-30T02:25:40;99467.31;;;18.13;100.00
72570;BME280;60594;50.204;8.844;2023-07-30T02:28:07;99461.75;;;18.14;100.00
72570;BME280;60594;50.204;8.844;2023-07-30T02:30:34;99469.84;;;18.14;100.00
72570;BME280;60594;50.204;8.844;2023-07-30T02:33:00;99463.41;;;18.15;100.00
72570;BME280;60594;50.204;8.844;2023-07-30T02:35:30;99465.19;;;18.08;100.00
72570;BME280;60594;50.204;8.844;2023-07-30T02:37:56;99473.09;;;18.10;100.00
72570;BME280;60594;50.204;8.844;2023-07-30T02:40:23;99474.31;;;18.07;100.00
72570;BME280;60594;50.204;8.844;2023-07-30T02:42:49;99478.59;;;18.02;100.00
72570;BME280;60594;50.204;8.844;2023-07-30T02:45:16;99485.66;;;18.03;100.00
72570;BME280;60594;50.204;8.844;2023-07-30T02:47:44;99485.09;;;17.93;100.00
72570;BME280;60594;50.204;8.844;2023-07-30T02:50:10;99481.28;;;17.87;100.00
72570;BME280;60594;50.204;8.844;2023-07-30T02:52:37;99487.44;;;17.81;100.00
72570;BME280;60594;50.204;8.844;2023-07-30T02:55:04;99487.06;;;17.70;100.00
72570;BME280;60594;50.204;8.844;2023-07-30T02:57:30;99498.13;;;17.75;100.00
72570;BME280;60594;50.204;8.844;2023-07-30T02:59:57;99506.28;;;17.67;100.00
72570;BME280;60594;50.204;8.844;2023-07-30T03:02:23;99513.16;;;17.55;100.00
72570;BME280;60594;50.204;8.844;2023-07-30T03:04:50;99506.00;;;17.47;100.00
72570;BME280;60594;50.204;8.844;2023-07-30T03:07:17;99503.59;;;17.52;100.00
72570;BME280;60594;50.204;8.844;2023-07-30T03:09:45;99504.34;;;17.61;100.00
72570;BME280;60594;50.204;8.844;2023-07-30T03:12:11;99503.41;;;17.68;100.00
72570;BME280;60594;50.204;8.844;2023-07-30T03:14:38;99495.81;;;17.72;100.00
72570;BME280;60594;50.204;8.844;2023-07-30T03:17:05;99502.41;;;17.84;100.00
72570;BME280;60594;50.204;8.844;2023-07-30T03:19:32;99511.16;;;17.86;100.00
72570;BME280;60594;50.204;8.844;2023-07-30T03:21:58;99517.28;;;17.80;100.00
72570;BME280;60594;50.204;8.844;2023-07-30T03:24:25;99517.91;;;17.82;100.00
72570;BME280;60594;50.204;8.844;2023-07-30T03:26:51;99519.47;;;17.76;100.00
72570;BME280;60594;50.204;8.844;2023-07-30T03:29:19;99509.28;;;17.72;100.00
72570;BME280;60594;50.204;8.844;2023-07-30T03:31:45;99501.00;;;17.73;100.00
72570;BME280;60594;50.204;8.844;2023-07-30T03:34:12;99502.75;;;17.81;100.00
72570;BME280;60594;50.204;8.844;2023-07-30T03:36:39;99506.75;;;17.85;100.00
72570;BME280;60594;50.204;8.844;2023-07-30T03:39:06;99506.56;;;17.86;100.00
72570;BME280;60594;50.204;8.844;2023-07-30T03:41:32;99517.34;;;17.86;100.00
72570;BME280;60594;50.204;8.844;2023-07-30T03:43:59;99501.72;;;17.82;100.00
72570;BME280;60594;50.204;8.844;2023-07-30T03:46:26;99505.09;;;17.84;100.00
72570;BME280;60594;50.204;8.844;2023-07-30T03:48:54;99496.56;;;17.80;100.00
72570;BME280;60594;50.204;8.844;2023-07-30T03:51:20;99504.72;;;17.87;100.00
72570;BME280;60594;50.204;8.844;2023-07-30T03:53:47;99502.22;;;17.85;100.00
72570;BME280;60594;50.204;8.844;2023-07-30T03:56:13;99499.34;;;17.87;100.00
72570;BME280;60594;50.204;8.844;2023-07-30T03:58:40;99506.75;;;17.85;100.00
72570;BME280;60594;50.204;8.844;2023-07-30T04:01:06;99505.53;;;17.87;100.00
72570;BME280;60594;50.204;8.844;2023-07-30T04:03:35;99498.41;;;17.80;100.00
72570;BME280;60594;50.204;8.844;2023-07-30T04:06:01;99492.81;;;17.81;100.00
72570;BME280;60594;50.204;8.844;2023-07-30T04:08:28;99508.78;;;17.54;100.00
72570;BME280;60594;50.204;8.844;2023-07-30T04:10:54;99504.03;;;17.56;100.00
72570;BME280;60594;50.204;8.844;2023-07-30T04:13:21;99508.03;;;17.60;100.00
72570;BME280;60594;50.204;8.844;2023-07-30T04:15:48;99499.31;;;17.58;100.00
72570;BME280;60594;50.204;8.844;2023-07-30T04:18:14;99507.66;;;17.63;100.00
72570;BME280;60594;50.204;8.844;2023-07-30T04:20:41;99508.88;;;17.60;100.00
72570;BME280;60594;50.204;8.844;2023-07-30T04:23:08;99520.03;;;17.57;100.00
72570;BME280;60594;50.204;8.844;2023-07-30T04:25:35;99520.97;;;17.50;100.00
72570;BME280;60594;50.204;8.844;2023-07-30T04:28:02;99525.59;;;17.56;100.00
72570;BME280;60594;50.204;8.844;2023-07-30T04:30:28;99525.59;;;17.56;100.00
72570;BME280;60594;50.204;8.844;2023-07-30T04:32:55;99528.28;;;17.56;100.00
72570;BME280;60594;50.204;8.844;2023-07-30T04:35:22;99527.47;;;17.55;100.00
72570;BME280;60594;50.204;8.844;2023-07-30T04:37:48;99531.94;;;17.63;100.00
72570;BME280;60594;50.204;8.844;2023-07-30T04:40:15;99536.59;;;17.69;100.00
72570;BME280;60594;50.204;8.844;2023-07-30T04:42:41;99533.91;;;17.69;100.00
72570;BME280;60594;50.204;8.844;2023-07-30T04:45:09;99531.13;;;17.62;100.00
72570;BME280;60594;50.204;8.844;2023-07-30T04:47:39;99543.91;;;17.60;100.00
72570;BME280;60594;50.204;8.844;2023-07-30T04:50:06;99541.22;;;17.60;100.00
72570;BME280;60594;50.204;8.844;2023-07-30T04:52:32;99537.31;;;17.63;100.00
72570;BME280;60594;50.204;8.844;2023-07-30T04:54:59;99536.50;;;17.62;100.00
72570;BME280;60594;50.204;8.844;2023-07-30T04:57:25;99536.09;;;17.65;100.00
72570;BME280;60594;50.204;8.844;2023-07-30T04:59:52;99532.59;;;17.65;100.00
72570;BME280;60594;50.204;8.844;2023-07-30T05:02:19;99533.22;;;17.67;100.00
72570;BME280;60594;50.204;8.844;2023-07-30T05:04:46;99530.09;;;17.63;100.00
72570;BME280;60594;50.204;8.844;2023-07-30T05:07:12;99535.47;;;17.41;100.00
72570;BME280;60594;50.204;8.844;2023-07-30T05:09:39;99542.88;;;17.24;100.00
72570;BME280;60594;50.204;8.844;2023-07-30T05:12:05;99539.44;;;17.16;100.00
72570;BME280;60594;50.204;8.844;2023-07-30T05:14:32;99532.34;;;17.15;100.00
72570;BME280;60594;50.204;8.844;2023-07-30T05:16:59;99536.75;;;17.30;100.00
72570;BME280;60594;50.204;8.844;2023-07-30T05:19:25;99537.66;;;17.23;100.00
72570;BME280;60594;50.204;8.844;2023-07-30T05:21:52;99528.88;;;17.29;100.00
72570;BME280;60594;50.204;8.844;2023-07-30T05:24:18;99534.91;;;17.31;100.00
72570;BME280;60594;50.204;8.844;2023-07-30T05:26:45;99529.81;;;17.13;100.00
72570;BME280;60594;50.204;8.844;2023-07-30T05:29:11;99531.81;;;17.19;100.00
72570;BME280;60594;50.204;8.844;2023-07-30T05:31:38;99531.81;;;17.19;100.00
72570;BME280;60594;50.204;8.844;2023-07-30T05:34:04;99532.47;;;17.21;100.00
72570;BME280;60594;50.204;8.844;2023-07-30T05:36:31;99527.69;;;17.09;100.00
72570;BME280;60594;50.204;8.844;2023-07-30T05:38:57;99527.16;;;16.91;100.00
72570;BME280;60594;50.204;8.844;2023-07-30T05:41:24;99519.16;;;16.83;100.00
72570;BME280;60594;50.204;8.844;2023-07-30T05:43:50;99521.88;;;16.74;100.00
72570;BME280;60594;50.204;8.844;2023-07-30T05:46:17;99522.09;;;16.73;100.00
72570;BME280;60594;50.204;8.844;2023-07-30T05:48:43;99522.47;;;16.84;100.00
72570;BME280;60594;50.204;8.844;2023-07-30T05:51:10;99520.16;;;16.81;100.00
72570;BME280;60594;50.204;8.844;2023-07-30T05:53:37;99524.47;;;16.91;100.00
72570;BME280;60594;50.204;8.844;2023-07-30T05:56:03;99515.44;;;16.83;100.00
72570;BME280;60594;50.204;8.844;2023-07-30T05:58:30;99514.41;;;16.84;100.00
72570;BME280;60594;50.204;8.844;2023-07-30T06:00:57;99515.47;;;16.98;100.00
72570;BME280;60594;50.204;8.844;2023-07-30T06:03:23;99523.38;;;17.00;100.00
72570;BME280;60594;50.204;8.844;2023-07-30T06:05:50;99519.38;;;16.96;100.00
72570;BME280;60594;50.204;8.844;2023-07-30T06:08:16;99523.63;;;16.90;100.00
72570;BME280;60594;50.204;8.844;2023-07-30T06:10:43;99524.75;;;16.96;100.00
72570;BME280;60594;50.204;8.844;2023-07-30T06:13:09;99529.44;;;17.02;100.00
72570;BME280;60594;50.204;8.844;2023-07-30T06:15:36;99531.38;;;17.08;100.00
72570;BME280;60594;50.204;8.844;2023-07-30T06:18:02;99540.25;;;17.16;100.00
72570;BME280;60594;50.204;8.844;2023-07-30T06:20:30;99532.53;;;17.13;100.00
72570;BME280;60594;50.204;8.844;2023-07-30T06:22:56;99526.13;;;17.14;100.00
72570;BME280;60594;50.204;8.844;2023-07-30T06:25:23;99537.63;;;17.31;100.00
72570;BME280;60594;50.204;8.844;2023-07-30T06:27:50;99539.91;;;17.42;100.00
72570;BME280;60594;50.204;8.844;2023-07-30T06:30:17;99539.28;;;17.54;100.00
72570;BME280;60594;50.204;8.844;2023-07-30T06:32:44;99543.16;;;17.52;100.00
72570;BME280;60594;50.204;8.844;2023-07-30T06:35:10;99531.56;;;17.51;100.00
72570;BME280;60594;50.204;8.844;2023-07-30T06:37:37;99539.75;;;17.72;100.00
72570;BME280;60594;50.204;8.844;2023-07-30T06:40:04;99542.16;;;17.82;100.00
72570;BME280;60594;50.204;8.844;2023-07-30T06:42:32;99536.03;;;17.88;100.00
72570;BME280;60594;50.204;8.844;2023-07-30T06:44:59;99545.34;;;18.00;100.00
72570;BME280;60594;50.204;8.844;2023-07-30T06:47:26;99548.34;;;18.05;100.00
72570;BME280;60594;50.204;8.844;2023-07-30T06:49:52;99542.19;;;17.96;100.00
72570;BME280;60594;50.204;8.844;2023-07-30T06:52:19;99550.09;;;18.12;100.00
72570;BME280;60594;50.204;8.844;2023-07-30T06:54:46;99549.63;;;18.23;100.00
72570;BME280;60594;50.204;8.844;2023-07-30T06:57:13;99533.78;;;18.20;100.00
72570;BME280;60594;50.204;8.844;2023-07-30T06:59:39;99557.88;;;18.22;100.00
72570;BME280;60594;50.204;8.844;2023-07-30T07:02:06;99550.72;;;18.29;100.00
72570;BME280;60594;50.204;8.844;2023-07-30T07:04:32;99551.69;;;18.36;100.00
72570;BME280;60594;50.204;8.844;2023-07-30T07:06:59;99553.25;;;18.30;100.00
72570;BME280;60594;50.204;8.844;2023-07-30T07:09:25;99563.41;;;18.28;100.00
72570;BME280;60594;50.204;8.844;2023-07-30T07:11:52;99561.88;;;18.26;100.00
72570;BME280;60594;50.204;8.844;2023-07-30T07:14:19;99548.41;;;18.26;100.00
72570;BME280;60594;50.204;8.844;2023-07-30T07:16:45;99558.44;;;18.32;100.00
72570;BME280;60594;50.204;8.844;2023-07-30T07:19:13;99565.66;;;18.39;100.00
72570;BME280;60594;50.204;8.844;2023-07-30T07:21:39;99567.22;;;18.48;100.00
72570;BME280;60594;50.204;8.844;2023-07-30T07:24:06;99572.22;;;18.51;100.00
72570;BME280;60594;50.204;8.844;2023-07-30T07:26:32;99568.44;;;18.46;100.00
72570;BME280;60594;50.204;8.844;2023-07-30T07:28:59;99580.59;;;18.56;100.00
72570;BME280;60594;50.204;8.844;2023-07-30T07:31:25;99581.88;;;18.60;100.00
72570;BME280;60594;50.204;8.844;2023-07-30T07:33:52;99581.31;;;18.65;100.00
72570;BME280;60594;50.204;8.844;2023-07-30T07:36:18;99584.28;;;18.70;100.00
72570;BME280;60594;50.204;8.844;2023-07-30T07:38:45;99595.50;;;18.67;100.00
72570;BME280;60594;50.204;8.844;2023-07-30T07:41:15;99594.09;;;18.71;100.00
72570;BME280;60594;50.204;8.844;2023-07-30T07:43:46;99597.69;;;18.78;100.00
72570;BME280;60594;50.204;8.844;2023-07-30T07:46:13;99602.25;;;18.77;100.00
72570;BME280;60594;50.204;8.844;2023-07-30T07:48:41;99611.81;;;18.80;100.00
72570;BME280;60594;50.204;8.844;2023-07-30T07:51:09;99610.97;;;18.79;100.00
72570;BME280;60594;50.204;8.844;2023-07-30T07:53:37;99606.00;;;18.76;99.41
72570;BME280;60594;50.204;8.844;2023-07-30T07:56:04;99611.19;;;18.78;96.18
72570;BME280;60594;50.204;8.844;2023-07-30T07:58:32;99598.50;;;18.78;95.79
72570;BME280;60594;50.204;8.844;2023-07-30T08:00:59;99603.34;;;18.83;96.52
72570;BME280;60594;50.204;8.844;2023-07-30T08:03:25;99586.31;;;18.82;96.66
72570;BME280;60594;50.204;8.844;2023-07-30T08:05:53;99582.78;;;18.82;95.78
72570;BME280;60594;50.204;8.844;2023-07-30T08:08:20;99583.09;;;18.93;92.40
72570;BME280;60594;50.204;8.844;2023-07-30T08:10:47;99568.19;;;18.97;91.80
72570;BME280;60594;50.204;8.844;2023-07-30T08:13:14;99569.47;;;19.01;88.84
72570;BME280;60594;50.204;8.844;2023-07-30T08:15:40;99563.75;;;19.11;86.68
72570;BME280;60594;50.204;8.844;2023-07-30T08:18:07;99559.25;;;19.18;85.36
72570;BME280;60594;50.204;8.844;2023-07-30T08:20:33;99567.28;;;19.26;86.32
72570;BME280;60594;50.204;8.844;2023-07-30T08:23:00;99571.91;;;19.32;87.14
72570;BME280;60594;50.204;8.844;2023-07-30T08:25:26;99562.06;;;19.24;88.54
72570;BME280;60594;50.204;8.844;2023-07-30T08:27:53;99559.19;;;19.26;87.12
72570;BME280;60594;50.204;8.844;2023-07-30T08:30:19;99569.00;;;19.33;87.08
72570;BME280;60594;50.204;8.844;2023-07-30T08:32:47;99569.47;;;19.37;87.74
72570;BME280;60594;50.204;8.844;2023-07-30T08:35:14;99546.50;;;19.26;85.00
72570;BME280;60594;50.204;8.844;2023-07-30T08:37:41;99559.44;;;19.31;83.57
72570;BME280;60594;50.204;8.844;2023-07-30T08:40:09;99563.94;;;19.45;82.42
72570;BME280;60594;50.204;8.844;2023-07-30T08:42:36;99566.16;;;19.41;85.90
72570;BME280;60594;50.204;8.844;2023-07-30T08:45:06;99564.16;;;19.50;84.75
72570;BME280;60594;50.204;8.844;2023-07-30T08:47:34;99561.66;;;19.48;85.95
72570;BME280;60594;50.204;8.844;2023-07-30T08:50:01;99555.91;;;19.58;88.37
72570;BME280;60594;50.204;8.844;2023-07-30T08:52:29;99549.19;;;19.75;83.87
72570;BME280;60594;50.204;8.844;2023-07-30T08:54:56;99549.81;;;19.77;83.02
72570;BME280;60594;50.204;8.844;2023-07-30T08:57:26;99551.53;;;19.84;84.60
72570;BME280;60594;50.204;8.844;2023-07-30T09:00:08;99544.06;;;19.86;85.88
72570;BME280;60594;50.204;8.844;2023-07-30T09:02:42;99559.06;;;19.89;85.26
72570;BME280;60594;50.204;8.844;2023-07-30T09:05:10;99557.91;;;20.04;83.76
72570;BME280;60594;50.204;8.844;2023-07-30T09:07:37;99553.91;;;19.94;83.53
72570;BME280;60594;50.204;8.844;2023-07-30T09:10:04;99558.88;;;19.90;85.58
72570;BME280;60594;50.204;8.844;2023-07-30T09:12:32;99569.28;;;19.93;88.00
72570;BME280;60594;50.204;8.844;2023-07-30T09:14:59;99548.38;;;19.81;91.51
72570;BME280;60594;50.204;8.844;2023-07-30T09:17:26;99543.78;;;19.75;94.36
72570;BME280;60594;50.204;8.844;2023-07-30T09:19:53;99549.22;;;19.81;92.87
72570;BME280;60594;50.204;8.844;2023-07-30T09:22:27;99550.53;;;19.92;91.93
72570;BME280;60594;50.204;8.844;2023-07-30T09:24:55;99552.63;;;19.90;88.59
72570;BME280;60594;50.204;8.844;2023-07-30T09:27:23;99543.91;;;19.94;87.14
72570;BME280;60594;50.204;8.844;2023-07-30T09:29:52;99545.22;;;20.05;83.96
72570;BME280;60594;50.204;8.844;2023-07-30T09:32:20;99547.81;;;20.20;84.53
72570;BME280;60594;50.204;8.844;2023-07-30T09:34:46;99550.22;;;20.36;82.73
72570;BME280;60594;50.204;8.844;2023-07-30T09:37:14;99543.78;;;20.43;81.89
72570;BME280;60594;50.204;8.844;2023-07-30T09:39:41;99545.41;;;20.31;83.58
72570;BME280;60594;50.204;8.844;2023-07-30T09:42:09;99546.66;;;20.35;84.92
72570;BME280;60594;50.204;8.844;2023-07-30T09:44:37;99545.34;;;20.18;85.18
72570;BME280;60594;50.204;8.844;2023-07-30T09:47:09;99536.03;;;19.99;87.61
72570;BME280;60594;50.204;8.844;2023-07-30T09:49:38;99547.56;;;19.80;91.51
72570;BME280;60594;50.204;8.844;2023-07-30T09:52:05;99543.53;;;19.70;97.53
72570;BME280;60594;50.204;8.844;2023-07-30T09:54:32;99551.50;;;19.50;100.00
72570;BME280;60594;50.204;8.844;2023-07-30T09:56:59;99547.00;;;19.36;99.32
72570;BME280;60594;50.204;8.844;2023-07-30T09:59:26;99551.16;;;18.97;100.00
72570;BME280;60594;50.204;8.844;2023-07-30T10:01:53;99548.81;;;18.73;100.00
72570;BME280;60594;50.204;8.844;2023-07-30T10:04:22;99548.69;;;18.45;100.00
72570;BME280;60594;50.204;8.844;2023-07-30T10:06:53;99545.44;;;18.21;100.00
72570;BME280;60594;50.204;8.844;2023-07-30T10:09:23;99557.66;;;18.02;100.00
72570;BME280;60594;50.204;8.844;2023-07-30T10:11:52;99579.66;;;17.91;100.00
72570;BME280;60594;50.204;8.844;2023-07-30T10:14:22;99594.28;;;17.60;100.00
72570;BME280;60594;50.204;8.844;2023-07-30T10:16:50;99615.63;;;17.47;100.00
72570;BME280;60594;50.204;8.844;2023-07-30T10:19:17;99616.03;;;17.36;100.00
72570;BME280;60594;50.204;8.844;2023-07-30T10:21:45;99615.81;;;17.15;100.00
72570;BME280;60594;50.204;8.844;2023-07-30T10:24:11;99630.19;;;17.07;100.00
72570;BME280;60594;50.204;8.844;2023-07-30T10:26:38;99649.41;;;17.04;100.00
72570;BME280;60594;50.204;8.844;2023-07-30T10:29:14;99662.09;;;16.88;100.00
72570;BME280;60594;50.204;8.844;2023-07-30T10:31:43;99665.66;;;16.80;100.00
72570;BME280;60594;50.204;8.844;2023-07-30T10:34:10;99671.91;;;16.80;100.00
72570;BME280;60594;50.204;8.844;2023-07-30T10:36:48;99678.31;;;16.79;100.00
72570;BME280;60594;50.204;8.844;2023-07-30T10:39:17;99685.22;;;16.74;100.00
72570;BME280;60594;50.204;8.844;2023-07-30T10:41:52;99685.44;;;16.64;100.00
72570;BME280;60594;50.204;8.844;2023-07-30T10:44:31;99687.94;;;16.58;100.00
72570;BME280;60594;50.204;8.844;2023-07-30T10:46:58;99687.94;;;16.58;100.00
72570;BME280;60594;50.204;8.844;2023-07-30T10:49:25;99698.53;;;16.59;100.00
72570;BME280;60594;50.204;8.844;2023-07-30T10:51:53;99707.44;;;16.68;100.00
72570;BME280;60594;50.204;8.844;2023-07-30T10:54:20;99705.09;;;16.65;100.00
72570;BME280;60594;50.204;8.844;2023-07-30T10:56:47;99706.63;;;16.67;100.00
72570;BME280;60594;50.204;8.844;2023-07-30T10:59:14;99717.56;;;16.66;100.00
72570;BME280;60594;50.204;8.844;2023-07-30T11:01:44;99713.31;;;16.63;100.00
72570;BME280;60594;50.204;8.844;2023-07-30T11:04:18;99721.41;;;16.63;100.00
72570;BME280;60594;50.204;8.844;2023-07-30T11:06:46;99724.91;;;16.72;100.00
72570;BME280;60594;50.204;8.844;2023-07-30T11:09:20;99726.28;;;16.68;100.00
72570;BME280;60594;50.204;8.844;2023-07-30T11:11:48;99745.72;;;16.86;100.00
72570;BME280;60594;50.204;8.844;2023-07-30T11:14:23;99737.50;;;17.18;100.00
72570;BME280;60594;50.204;8.844;2023-07-30T11:16:57;99729.03;;;17.60;100.00
72570;BME280;60594;50.204;8.844;2023-07-30T11:19:28;99729.22;;;17.58;100.00
72570;BME280;60594;50.204;8.844;2023-07-30T11:21:56;99737.59;;;17.63;100.00
72570;BME280;60594;50.204;8.844;2023-07-30T11:24:36;99731.34;;;17.40;100.00
72570;BME280;60594;50.204;8.844;2023-07-30T11:27:03;99739.09;;;17.35;100.00
72570;BME280;60594;50.204;8.844;2023-07-30T11:29:30;99744.50;;;17.43;98.73
72570;BME280;60594;50.204;8.844;2023-07-30T11:31:58;99744.50;;;17.43;94.96
72570;BME280;60594;50.204;8.844;2023-07-30T11:34:26;99751.72;;;17.43;94.75
72570;BME280;60594;50.204;8.844;2023-07-30T11:36:54;99745.19;;;17.60;92.63
72570;BME280;60594;50.204;8.844;2023-07-30T11:39:23;99747.97;;;17.97;96.17
72570;BME280;60594;50.204;8.844;2023-07-30T11:41:50;99744.94;;;18.37;89.76
72570;BME280;60594;50.204;8.844;2023-07-30T11:44:34;99759.94;;;18.54;87.98
72570;BME280;60594;50.204;8.844;2023-07-30T11:47:01;99741.91;;;18.54;90.79
72570;BME280;60594;50.204;8.844;2023-07-30T11:49:30;99750.06;;;18.46;86.24
72570;BME280;60594;50.204;8.844;2023-07-30T11:52:09;99763.69;;;18.30;86.43
72570;BME280;60594;50.204;8.844;2023-07-30T11:54:37;99765.16;;;18.18;84.99
72570;BME280;60594;50.204;8.844;2023-07-30T11:57:04;99753.94;;;18.07;87.53
72570;BME280;60594;50.204;8.844;2023-07-30T11:59:31;99756.53;;;18.00;84.66
72570;BME280;60594;50.204;8.844;2023-07-30T12:01:58;99766.66;;;18.21;82.74
72570;BME280;60594;50.204;8.844;2023-07-30T12:04:24;99751.59;;;18.26;83.48
72570;BME280;60594;50.204;8.844;2023-07-30T12:06:52;99770.16;;;18.44;81.87
72570;BME280;60594;50.204;8.844;2023-07-30T12:09:20;99770.47;;;18.49;88.58
72570;BME280;60594;50.204;8.844;2023-07-30T12:14:27;99780.06;;;18.51;82.07
72570;BME280;60594;50.204;8.844;2023-07-30T12:16:59;99781.38;;;18.55;79.79
72570;BME280;60594;50.204;8.844;2023-07-30T12:19:26;99788.44;;;18.56;79.23
72570;BME280;60594;50.204;8.844;2023-07-30T12:21:53;99782.66;;;18.59;79.88
72570;BME280;60594;50.204;8.844;2023-07-30T12:24:19;99802.25;;;18.61;78.01
72570;BME280;60594;50.204;8.844;2023-07-30T12:26:46;99789.75;;;18.60;76.90
72570;BME280;60594;50.204;8.844;2023-07-30T12:29:12;99799.41;;;18.55;76.26
72570;BME280;60594;50.204;8.844;2023-07-30T12:31:39;99787.78;;;18.54;79.06
72570;BME280;60594;50.204;8.844;2023-07-30T12:34:05;99794.31;;;18.60;81.34
72570;BME280;60594;50.204;8.844;2023-07-30T12:36:32;99792.06;;;18.63;78.48
72570;BME280;60594;50.204;8.844;2023-07-30T12:38:58;99784.91;;;18.70;84.77
72570;BME280;60594;50.204;8.844;2023-07-30T12:41:25;99798.16;;;18.65;81.68
72570;BME280;60594;50.204;8.844;2023-07-30T12:43:53;99805.13;;;18.60;79.18
72570;BME280;60594;50.204;8.844;2023-07-30T12:46:21;99810.88;;;18.57;80.48
72570;BME280;60594;50.204;8.844;2023-07-30T12:48:49;99806.59;;;18.62;83.35
72570;BME280;60594;50.204;8.844;2023-07-30T12:51:15;99804.53;;;18.64;82.30
72570;BME280;60594;50.204;8.844;2023-07-30T12:53:42;99805.66;;;18.70;81.29
72570;BME280;60594;50.204;8.844;2023-07-30T12:56:09;99805.84;;;18.68;79.28